sensor_id;sensor_type;location;lat;lon;timestamp;temperature;humidity
13251;DHT22;6692;50.710;7.180;2022-08-11T00:00:10;20.90;99.90
13251;DHT22;6692;50.710;7.180;2022-08-11T00:02:10;20.90;99.90
13251;DHT22;6692;50.710;7.180;2022-08-11T00:04:11;20.90;99.90
13251;DHT22;6692;50.710;7.180;2022-08-11T00:06:12;20.90;99.90
13251;DHT22;6692;50.710;7.180;2022-08-11T00:08:22;20.90;99.90
13251;DHT22;6692;50.710;7.180;2022-08-11T00:10:23;20.90;99.90
13251;DHT22;6692;50.710;7.180;2022-08-11T00:12:22;20.90;99.90
13251;DHT22;6692;50.710;7.180;2022-08-11T00:14:24;20.90;99.90
13251;DHT22;6692;50.710;7.180;2022-08-11T00:16:24;20.80;99.90
13251;DHT22;6692;50.710;7.180;2022-08-11T00:18:24;20.80;99.90
13251;DHT22;6692;50.710;7.180;2022-08-11T00:20:31;20.70;99.90
13251;DHT22;6692;50.710;7.180;2022-08-11T00:22:31;20.70;99.90
13251;DHT22;6692;50.710;7.180;2022-08-11T00:24:33;20.70;99.90
13251;DHT22;6692;50.710;7.180;2022-08-11T00:26:33;20.70;99.90
13251;DHT22;6692;50.710;7.180;2022-08-11T00:28:34;20.60;99.90
13251;DHT22;6692;50.710;7.180;2022-08-11T00:30:38;20.60;99.90
13251;DHT22;6692;50.710;7.180;2022-08-11T00:32:38;20.60;99.90
13251;DHT22;6692;50.710;7.180;2022-08-11T00:34:38;20.60;99.90
13251;DHT22;6692;50.710;7.180;2022-08-11T00:36:44;20.60;99.90
13251;DHT22;6692;50.710;7.180;2022-08-11T00:38:43;20.60;99.90
13251;DHT22;6692;50.710;7.180;2022-08-11T00:40:45;20.50;99.90
13251;DHT22;6692;50.710;7.180;2022-08-11T00:42:47;20.50;99.90
13251;DHT22;6692;50.710;7.180;2022-08-11T00:45:09;20.50;99.90
13251;DHT22;6692;50.710;7.180;2022-08-11T00:50:15;20.40;99.90
13251;DHT22;6692;50.710;7.180;2022-08-11T00:52:07;20.30;99.90
13251;DHT22;6692;50.710;7.180;2022-08-11T00:54:07;20.30;99.90
13251;DHT22;6692;50.710;7.180;2022-08-11T00:56:17;20.30;99.90
13251;DHT22;6692;50.710;7.180;2022-08-11T00:58:26;20.20;99.90
13251;DHT22;6692;50.710;7.180;2022-08-11T01:00:20;20.30;99.90
13251;DHT22;6692;50.710;7.180;2022-08-11T01:02:26;20.30;99.90
13251;DHT22;6692;50.710;7.180;2022-08-11T01:04:58;20.30;99.90
13251;DHT22;6692;50.710;7.180;2022-08-11T01:07:22;20.30;99.90
13251;DHT22;6692;50.710;7.180;2022-08-11T01:16:26;20.20;99.90
13251;DHT22;6692;50.710;7.180;2022-08-11T01:21:07;20.10;99.90
13251;DHT22;6692;50.710;7.180;2022-08-11T01:24:30;20.10;99.90
13251;DHT22;6692;50.710;7.180;2022-08-11T01:30:42;20.00;99.90
13251;DHT22;6692;50.710;7.180;2022-08-11T01:32:54;20.00;99.90
13251;DHT22;6692;50.710;7.180;2022-08-11T01:37:01;19.90;99.90
13251;DHT22;6692;50.710;7.180;2022-08-11T01:44:02;19.90;99.90
13251;DHT22;6692;50.710;7.180;2022-08-11T01:46:25;19.80;99.90
13251;DHT22;6692;50.710;7.180;2022-08-11T01:48:41;19.80;99.90
13251;DHT22;6692;50.710;7.180;2022-08-11T01:50:47;19.80;99.90
13251;DHT22;6692;50.710;7.180;2022-08-11T01:52:54;19.80;99.90
13251;DHT22;6692;50.710;7.180;2022-08-11T01:54:54;19.80;99.90
13251;DHT22;6692;50.710;7.180;2022-08-11T01:57:08;19.80;99.90
13251;DHT22;6692;50.710;7.180;2022-08-11T01:59:22;19.80;99.90
13251;DHT22;6692;50.710;7.180;2022-08-11T02:01:33;19.80;99.90
13251;DHT22;6692;50.710;7.180;2022-08-11T02:03:34;19.80;99.90
13251;DHT22;6692;50.710;7.180;2022-08-11T02:05:51;19.70;99.90
13251;DHT22;6692;50.710;7.180;2022-08-11T02:07:58;19.70;99.90
13251;DHT22;6692;50.710;7.180;2022-08-11T02:14:38;19.60;99.90
13251;DHT22;6692;50.710;7.180;2022-08-11T02:16:47;19.60;99.90
13251;DHT22;6692;50.710;7.180;2022-08-11T02:18:49;19.60;99.90
13251;DHT22;6692;50.710;7.180;2022-08-11T02:20:55;19.60;99.90
13251;DHT22;6692;50.710;7.180;2022-08-11T02:23:01;19.60;99.90
13251;DHT22;6692;50.710;7.180;2022-08-11T02:25:11;19.60;99.90
13251;DHT22;6692;50.710;7.180;2022-08-11T02:27:15;19.50;99.90
13251;DHT22;6692;50.710;7.180;2022-08-11T02:34:13;19.60;99.90
13251;DHT22;6692;50.710;7.180;2022-08-11T02:36:16;19.50;99.90
13251;DHT22;6692;50.710;7.180;2022-08-11T02:38:34;19.50;99.90
13251;DHT22;6692;50.710;7.180;2022-08-11T02:40:37;19.50;99.90
13251;DHT22;6692;50.710;7.180;2022-08-11T02:42:38;19.50;99.90
13251;DHT22;6692;50.710;7.180;2022-08-11T02:44:45;19.50;99.90
13251;DHT22;6692;50.710;7.180;2022-08-11T02:46:48;19.40;99.90
13251;DHT22;6692;50.710;7.180;2022-08-11T02:48:49;19.50;99.90
13251;DHT22;6692;50.710;7.180;2022-08-11T02:51:08;19.50;99.90
13251;DHT22;6692;50.710;7.180;2022-08-11T02:53:11;19.40;99.90
13251;DHT22;6692;50.710;7.180;2022-08-11T02:55:14;19.40;99.90
13251;DHT22;6692;50.710;7.180;2022-08-11T02:57:19;19.40;99.90
13251;DHT22;6692;50.710;7.180;2022-08-11T02:59:26;19.40;99.90
13251;DHT22;6692;50.710;7.180;2022-08-11T03:01:35;19.40;99.90
13251;DHT22;6692;50.710;7.180;2022-08-11T03:03:35;19.40;99.90
13251;DHT22;6692;50.710;7.180;2022-08-11T03:06:48;19.30;99.90
13251;DHT22;6692;50.710;7.180;2022-08-11T03:08:07;19.30;99.90
13251;DHT22;6692;50.710;7.180;2022-08-11T03:10:45;19.40;99.90
13251;DHT22;6692;50.710;7.180;2022-08-11T03:12:32;19.30;99.90
13251;DHT22;6692;50.710;7.180;2022-08-11T03:14:47;19.30;99.90
13251;DHT22;6692;50.710;7.180;2022-08-11T03:16:54;19.30;99.90
13251;DHT22;6692;50.710;7.180;2022-08-11T03:19:00;19.30;99.90
13251;DHT22;6692;50.710;7.180;2022-08-11T03:23:44;19.20;99.90
13251;DHT22;6692;50.710;7.180;2022-08-11T03:28:43;19.20;99.90
13251;DHT22;6692;50.710;7.180;2022-08-11T03:30:47;19.10;99.90
13251;DHT22;6692;50.710;7.180;2022-08-11T03:32:56;19.10;99.90
13251;DHT22;6692;50.710;7.180;2022-08-11T03:34:59;19.10;99.90
13251;DHT22;6692;50.710;7.180;2022-08-11T03:39:27;19.00;99.90
13251;DHT22;6692;50.710;7.180;2022-08-11T03:41:25;19.00;99.90
13251;DHT22;6692;50.710;7.180;2022-08-11T03:46:24;18.90;99.90
13251;DHT22;6692;50.710;7.180;2022-08-11T03:48:12;18.90;99.90
13251;DHT22;6692;50.710;7.180;2022-08-11T03:50:43;18.90;99.90
13251;DHT22;6692;50.710;7.180;2022-08-11T03:52:52;18.80;99.90
13251;DHT22;6692;50.710;7.180;2022-08-11T03:55:07;18.80;99.90
13251;DHT22;6692;50.710;7.180;2022-08-11T03:57:19;18.70;99.90
13251;DHT22;6692;50.710;7.180;2022-08-11T03:59:27;18.60;99.90
13251;DHT22;6692;50.710;7.180;2022-08-11T04:01:36;18.60;99.90
13251;DHT22;6692;50.710;7.180;2022-08-11T04:04:14;18.60;99.90
13251;DHT22;6692;50.710;7.180;2022-08-11T04:06:46;18.60;99.90
13251;DHT22;6692;50.710;7.180;2022-08-11T04:08:49;18.50;99.90
13251;DHT22;6692;50.710;7.180;2022-08-11T04:10:59;18.60;99.90
13251;DHT22;6692;50.710;7.180;2022-08-11T04:13:23;18.50;99.90
13251;DHT22;6692;50.710;7.180;2022-08-11T04:17:47;18.60;99.90
13251;DHT22;6692;50.710;7.180;2022-08-11T04:19:54;18.60;99.90
13251;DHT22;6692;50.710;7.180;2022-08-11T04:22:05;18.60;99.90
13251;DHT22;6692;50.710;7.180;2022-08-11T04:24:05;18.70;99.90
13251;DHT22;6692;50.710;7.180;2022-08-11T04:28:41;18.70;99.90
13251;DHT22;6692;50.710;7.180;2022-08-11T04:31:06;18.70;99.90
13251;DHT22;6692;50.710;7.180;2022-08-11T04:35:31;18.60;99.90
13251;DHT22;6692;50.710;7.180;2022-08-11T04:37:36;18.60;99.90
13251;DHT22;6692;50.710;7.180;2022-08-11T04:39:42;18.60;99.90
13251;DHT22;6692;50.710;7.180;2022-08-11T04:42:05;18.60;99.90
13251;DHT22;6692;50.710;7.180;2022-08-11T04:46:41;18.60;99.90
13251;DHT22;6692;50.710;7.180;2022-08-11T04:51:54;18.60;99.90
13251;DHT22;6692;50.710;7.180;2022-08-11T04:54:03;18.50;99.90
13251;DHT22;6692;50.710;7.180;2022-08-11T04:56:13;18.50;99.90
13251;DHT22;6692;50.710;7.180;2022-08-11T04:58:25;18.50;99.90
13251;DHT22;6692;50.710;7.180;2022-08-11T05:00:35;18.50;99.90
13251;DHT22;6692;50.710;7.180;2022-08-11T05:03:15;18.50;99.90
13251;DHT22;6692;50.710;7.180;2022-08-11T05:05:20;18.40;99.90
13251;DHT22;6692;50.710;7.180;2022-08-11T05:07:48;18.40;99.90
13251;DHT22;6692;50.710;7.180;2022-08-11T05:09:50;18.40;99.90
13251;DHT22;6692;50.710;7.180;2022-08-11T05:12:32;18.40;99.90
13251;DHT22;6692;50.710;7.180;2022-08-11T05:14:28;18.40;99.90
13251;DHT22;6692;50.710;7.180;2022-08-11T05:16:34;18.50;99.90
13251;DHT22;6692;50.710;7.180;2022-08-11T05:18:46;18.50;99.90
13251;DHT22;6692;50.710;7.180;2022-08-11T05:20:53;18.50;99.90
13251;DHT22;6692;50.710;7.180;2022-08-11T05:23:13;18.50;99.90
13251;DHT22;6692;50.710;7.180;2022-08-11T05:25:24;18.50;99.90
13251;DHT22;6692;50.710;7.180;2022-08-11T05:27:34;18.60;99.90
13251;DHT22;6692;50.710;7.180;2022-08-11T05:29:44;18.60;99.90
13251;DHT22;6692;50.710;7.180;2022-08-11T05:31:54;18.60;99.90
13251;DHT22;6692;50.710;7.180;2022-08-11T05:34:00;18.60;99.90
13251;DHT22;6692;50.710;7.180;2022-08-11T05:36:16;18.60;99.90
13251;DHT22;6692;50.710;7.180;2022-08-11T05:38:16;18.70;99.90
13251;DHT22;6692;50.710;7.180;2022-08-11T05:40:22;18.70;99.90
13251;DHT22;6692;50.710;7.180;2022-08-11T05:42:28;18.70;99.90
13251;DHT22;6692;50.710;7.180;2022-08-11T05:44:35;18.70;99.90
13251;DHT22;6692;50.710;7.180;2022-08-11T05:46:42;18.80;99.90
13251;DHT22;6692;50.710;7.180;2022-08-11T05:48:49;18.80;99.90
13251;DHT22;6692;50.710;7.180;2022-08-11T05:50:56;18.80;99.90
13251;DHT22;6692;50.710;7.180;2022-08-11T05:53:02;18.80;99.90
13251;DHT22;6692;50.710;7.180;2022-08-11T05:55:09;18.80;99.90
13251;DHT22;6692;50.710;7.180;2022-08-11T05:57:19;18.90;99.90
13251;DHT22;6692;50.710;7.180;2022-08-11T05:59:20;18.90;99.90
13251;DHT22;6692;50.710;7.180;2022-08-11T06:01:23;18.90;99.90
13251;DHT22;6692;50.710;7.180;2022-08-11T06:03:24;18.90;99.90
13251;DHT22;6692;50.710;7.180;2022-08-11T06:05:23;19.00;99.90
13251;DHT22;6692;50.710;7.180;2022-08-11T06:07:29;18.90;99.90
13251;DHT22;6692;50.710;7.180;2022-08-11T06:09:33;19.00;99.90
13251;DHT22;6692;50.710;7.180;2022-08-11T06:11:37;19.00;99.90
13251;DHT22;6692;50.710;7.180;2022-08-11T06:13:42;19.00;99.90
13251;DHT22;6692;50.710;7.180;2022-08-11T06:15:44;19.00;99.90
13251;DHT22;6692;50.710;7.180;2022-08-11T06:17:44;19.00;99.90
13251;DHT22;6692;50.710;7.180;2022-08-11T06:19:46;19.00;99.90
13251;DHT22;6692;50.710;7.180;2022-08-11T06:21:45;19.00;99.90
13251;DHT22;6692;50.710;7.180;2022-08-11T06:23:46;19.00;99.90
13251;DHT22;6692;50.710;7.180;2022-08-11T06:25:47;19.00;99.90
13251;DHT22;6692;50.710;7.180;2022-08-11T06:27:53;19.00;99.90
13251;DHT22;6692;50.710;7.180;2022-08-11T06:29:49;19.00;99.90
13251;DHT22;6692;50.710;7.180;2022-08-11T06:31:56;19.00;99.90
13251;DHT22;6692;50.710;7.180;2022-08-11T06:34:08;19.00;99.90
13251;DHT22;6692;50.710;7.180;2022-08-11T06:36:43;19.00;99.90
13251;DHT22;6692;50.710;7.180;2022-08-11T06:39:38;19.10;99.90
13251;DHT22;6692;50.710;7.180;2022-08-11T06:40:54;19.10;99.90
13251;DHT22;6692;50.710;7.180;2022-08-11T06:43:17;19.10;99.90
13251;DHT22;6692;50.710;7.180;2022-08-11T06:45:32;19.20;99.90
13251;DHT22;6692;50.710;7.180;2022-08-11T06:47:31;19.30;99.90
13251;DHT22;6692;50.710;7.180;2022-08-11T06:49:32;19.30;99.90
13251;DHT22;6692;50.710;7.180;2022-08-11T06:51:38;19.30;99.90
13251;DHT22;6692;50.710;7.180;2022-08-11T06:53:48;19.40;99.90
13251;DHT22;6692;50.710;7.180;2022-08-11T06:55:47;19.40;99.90
13251;DHT22;6692;50.710;7.180;2022-08-11T06:57:54;19.60;99.90
13251;DHT22;6692;50.710;7.180;2022-08-11T07:00:01;19.60;99.90
13251;DHT22;6692;50.710;7.180;2022-08-11T07:02:16;19.70;99.90
13251;DHT22;6692;50.710;7.180;2022-08-11T07:06:43;19.70;99.90
13251;DHT22;6692;50.710;7.180;2022-08-11T07:08:54;19.80;99.90
13251;DHT22;6692;50.710;7.180;2022-08-11T07:11:07;19.80;99.90
13251;DHT22;6692;50.710;7.180;2022-08-11T07:13:07;19.90;99.90
13251;DHT22;6692;50.710;7.180;2022-08-11T07:15:13;20.00;99.90
13251;DHT22;6692;50.710;7.180;2022-08-11T07:17:21;20.00;99.90
13251;DHT22;6692;50.710;7.180;2022-08-11T07:19:23;20.00;99.90
13251;DHT22;6692;50.710;7.180;2022-08-11T07:21:29;20.00;99.90
13251;DHT22;6692;50.710;7.180;2022-08-11T07:23:34;20.10;99.90
13251;DHT22;6692;50.710;7.180;2022-08-11T07:25:42;20.20;99.90
13251;DHT22;6692;50.710;7.180;2022-08-11T07:27:50;20.20;99.90
13251;DHT22;6692;50.710;7.180;2022-08-11T07:29:55;20.20;99.90
13251;DHT22;6692;50.710;7.180;2022-08-11T07:31:56;20.30;99.90
13251;DHT22;6692;50.710;7.180;2022-08-11T07:34:23;20.40;99.90
13251;DHT22;6692;50.710;7.180;2022-08-11T07:36:22;20.70;99.90
13251;DHT22;6692;50.710;7.180;2022-08-11T07:38:26;20.70;99.90
13251;DHT22;6692;50.710;7.180;2022-08-11T07:40:25;20.90;99.90
13251;DHT22;6692;50.710;7.180;2022-08-11T07:42:29;21.00;99.90
13251;DHT22;6692;50.710;7.180;2022-08-11T07:44:27;20.90;99.90
13251;DHT22;6692;50.710;7.180;2022-08-11T07:46:28;21.00;99.90
13251;DHT22;6692;50.710;7.180;2022-08-11T07:48:35;21.10;99.90
13251;DHT22;6692;50.710;7.180;2022-08-11T07:50:42;21.10;99.90
13251;DHT22;6692;50.710;7.180;2022-08-11T07:52:49;21.20;99.90
13251;DHT22;6692;50.710;7.180;2022-08-11T07:54:49;21.30;99.90
13251;DHT22;6692;50.710;7.180;2022-08-11T07:56:50;21.30;99.90
13251;DHT22;6692;50.710;7.180;2022-08-11T07:58:50;21.30;99.90
13251;DHT22;6692;50.710;7.180;2022-08-11T08:00:57;21.30;99.90
13251;DHT22;6692;50.710;7.180;2022-08-11T08:03:04;21.40;99.90
13251;DHT22;6692;50.710;7.180;2022-08-11T08:05:11;21.50;99.90
13251;DHT22;6692;50.710;7.180;2022-08-11T08:07:20;21.50;99.90
13251;DHT22;6692;50.710;7.180;2022-08-11T08:09:26;21.60;99.90
13251;DHT22;6692;50.710;7.180;2022-08-11T08:11:33;21.80;99.90
13251;DHT22;6692;50.710;7.180;2022-08-11T08:13:40;21.90;99.90
13251;DHT22;6692;50.710;7.180;2022-08-11T08:15:47;22.00;99.90
13251;DHT22;6692;50.710;7.180;2022-08-11T08:17:54;22.00;99.90
13251;DHT22;6692;50.710;7.180;2022-08-11T08:19:55;22.10;99.90
13251;DHT22;6692;50.710;7.180;2022-08-11T08:21:56;22.20;99.90
13251;DHT22;6692;50.710;7.180;2022-08-11T08:23:56;22.20;99.90
13251;DHT22;6692;50.710;7.180;2022-08-11T08:25:57;22.30;99.90
13251;DHT22;6692;50.710;7.180;2022-08-11T08:27:58;22.30;99.90
13251;DHT22;6692;50.710;7.180;2022-08-11T08:29:58;22.30;99.90
13251;DHT22;6692;50.710;7.180;2022-08-11T08:32:06;22.50;99.90
13251;DHT22;6692;50.710;7.180;2022-08-11T08:34:07;22.40;99.90
13251;DHT22;6692;50.710;7.180;2022-08-11T08:36:07;22.40;99.90
13251;DHT22;6692;50.710;7.180;2022-08-11T08:38:11;22.40;99.90
13251;DHT22;6692;50.710;7.180;2022-08-11T08:40:12;22.40;99.90
13251;DHT22;6692;50.710;7.180;2022-08-11T08:42:15;22.50;99.90
13251;DHT22;6692;50.710;7.180;2022-08-11T08:44:13;22.50;99.90
13251;DHT22;6692;50.710;7.180;2022-08-11T08:46:13;22.60;99.90
13251;DHT22;6692;50.710;7.180;2022-08-11T08:48:14;22.70;99.90
13251;DHT22;6692;50.710;7.180;2022-08-11T08:50:15;22.80;99.90
13251;DHT22;6692;50.710;7.180;2022-08-11T08:52:22;22.80;99.90
13251;DHT22;6692;50.710;7.180;2022-08-11T08:54:17;22.80;99.90
13251;DHT22;6692;50.710;7.180;2022-08-11T08:56:17;23.00;99.90
13251;DHT22;6692;50.710;7.180;2022-08-11T08:58:19;22.90;99.90
13251;DHT22;6692;50.710;7.180;2022-08-11T09:00:19;23.10;99.90
13251;DHT22;6692;50.710;7.180;2022-08-11T09:02:22;23.10;99.90
13251;DHT22;6692;50.710;7.180;2022-08-11T09:04:20;23.00;99.90
13251;DHT22;6692;50.710;7.180;2022-08-11T09:06:21;22.90;99.90
13251;DHT22;6692;50.710;7.180;2022-08-11T09:08:22;22.90;99.90
13251;DHT22;6692;50.710;7.180;2022-08-11T09:10:22;22.90;99.90
13251;DHT22;6692;50.710;7.180;2022-08-11T09:12:27;23.10;99.90
13251;DHT22;6692;50.710;7.180;2022-08-11T09:14:31;23.30;99.90
13251;DHT22;6692;50.710;7.180;2022-08-11T09:16:28;23.50;99.90
13251;DHT22;6692;50.710;7.180;2022-08-11T09:18:28;23.60;99.90
13251;DHT22;6692;50.710;7.180;2022-08-11T09:20:32;23.70;99.90
13251;DHT22;6692;50.710;7.180;2022-08-11T09:22:33;23.70;99.90
13251;DHT22;6692;50.710;7.180;2022-08-11T09:24:39;23.70;99.90
13251;DHT22;6692;50.710;7.180;2022-08-11T09:26:45;23.60;99.90
13251;DHT22;6692;50.710;7.180;2022-08-11T09:28:52;23.50;99.90
13251;DHT22;6692;50.710;7.180;2022-08-11T09:30:53;23.40;99.90
13251;DHT22;6692;50.710;7.180;2022-08-11T09:32:54;23.30;99.90
13251;DHT22;6692;50.710;7.180;2022-08-11T09:34:54;23.30;99.90
13251;DHT22;6692;50.710;7.180;2022-08-11T09:36:55;23.40;99.90
13251;DHT22;6692;50.710;7.180;2022-08-11T09:39:02;23.50;99.90
13251;DHT22;6692;50.710;7.180;2022-08-11T09:41:10;23.90;99.90
13251;DHT22;6692;50.710;7.180;2022-08-11T09:43:10;23.90;99.90
13251;DHT22;6692;50.710;7.180;2022-08-11T09:45:17;24.00;99.90
13251;DHT22;6692;50.710;7.180;2022-08-11T09:47:21;23.80;99.90
13251;DHT22;6692;50.710;7.180;2022-08-11T09:49:20;23.70;99.90
13251;DHT22;6692;50.710;7.180;2022-08-11T09:51:21;23.60;99.90
13251;DHT22;6692;50.710;7.180;2022-08-11T09:53:23;23.60;99.90
13251;DHT22;6692;50.710;7.180;2022-08-11T09:55:23;23.50;99.90
13251;DHT22;6692;50.710;7.180;2022-08-11T09:57:23;23.40;99.90
13251;DHT22;6692;50.710;7.180;2022-08-11T09:59:30;23.30;99.90
13251;DHT22;6692;50.710;7.180;2022-08-11T10:01:33;23.30;99.90
13251;DHT22;6692;50.710;7.180;2022-08-11T10:03:33;23.50;99.90
13251;DHT22;6692;50.710;7.180;2022-08-11T10:05:34;23.70;99.90
13251;DHT22;6692;50.710;7.180;2022-08-11T10:07:42;23.70;99.90
13251;DHT22;6692;50.710;7.180;2022-08-11T10:09:48;23.80;99.90
13251;DHT22;6692;50.710;7.180;2022-08-11T10:11:46;23.90;99.90
13251;DHT22;6692;50.710;7.180;2022-08-11T10:13:47;23.80;99.90
13251;DHT22;6692;50.710;7.180;2022-08-11T10:15:54;24.00;99.90
13251;DHT22;6692;50.710;7.180;2022-08-11T10:17:56;24.00;99.90
13251;DHT22;6692;50.710;7.180;2022-08-11T10:20:02;23.90;99.90
13251;DHT22;6692;50.710;7.180;2022-08-11T10:22:04;23.80;99.90
13251;DHT22;6692;50.710;7.180;2022-08-11T10:24:10;23.80;99.90
13251;DHT22;6692;50.710;7.180;2022-08-11T10:26:18;23.80;99.90
13251;DHT22;6692;50.710;7.180;2022-08-11T10:28:24;24.00;99.90
13251;DHT22;6692;50.710;7.180;2022-08-11T10:30:26;23.80;99.90
13251;DHT22;6692;50.710;7.180;2022-08-11T10:32:32;23.80;99.90
13251;DHT22;6692;50.710;7.180;2022-08-11T10:34:39;23.80;99.90
13251;DHT22;6692;50.710;7.180;2022-08-11T10:36:40;23.80;99.90
13251;DHT22;6692;50.710;7.180;2022-08-11T10:38:44;23.80;99.90
13251;DHT22;6692;50.710;7.180;2022-08-11T10:40:44;23.80;99.90
13251;DHT22;6692;50.710;7.180;2022-08-11T10:42:44;23.70;99.90
13251;DHT22;6692;50.710;7.180;2022-08-11T10:44:52;23.70;99.90
13251;DHT22;6692;50.710;7.180;2022-08-11T10:46:52;23.70;99.90
13251;DHT22;6692;50.710;7.180;2022-08-11T10:48:58;23.70;99.90
13251;DHT22;6692;50.710;7.180;2022-08-11T10:50:59;23.60;99.90
13251;DHT22;6692;50.710;7.180;2022-08-11T10:53:06;23.60;99.90
13251;DHT22;6692;50.710;7.180;2022-08-11T10:55:13;23.70;99.90
13251;DHT22;6692;50.710;7.180;2022-08-11T10:57:19;23.70;99.90
13251;DHT22;6692;50.710;7.180;2022-08-11T10:59:27;23.70;99.90
13251;DHT22;6692;50.710;7.180;2022-08-11T11:01:29;23.80;99.90
13251;DHT22;6692;50.710;7.180;2022-08-11T11:03:28;23.90;99.90
13251;DHT22;6692;50.710;7.180;2022-08-11T11:05:29;23.90;99.90
13251;DHT22;6692;50.710;7.180;2022-08-11T11:07:35;24.10;99.90
13251;DHT22;6692;50.710;7.180;2022-08-11T11:09:36;24.10;99.90
13251;DHT22;6692;50.710;7.180;2022-08-11T11:11:37;24.20;99.90
13251;DHT22;6692;50.710;7.180;2022-08-11T11:13:43;24.20;99.90
13251;DHT22;6692;50.710;7.180;2022-08-11T11:15:49;24.10;99.90
13251;DHT22;6692;50.710;7.180;2022-08-11T11:17:58;24.10;99.90
13251;DHT22;6692;50.710;7.180;2022-08-11T11:19:57;24.10;99.90
13251;DHT22;6692;50.710;7.180;2022-08-11T11:21:57;24.10;99.90
13251;DHT22;6692;50.710;7.180;2022-08-11T11:24:09;24.10;99.90
13251;DHT22;6692;50.710;7.180;2022-08-11T11:28:37;24.10;99.90
13251;DHT22;6692;50.710;7.180;2022-08-11T11:30:36;24.10;99.90
13251;DHT22;6692;50.710;7.180;2022-08-11T11:32:39;24.10;99.90
13251;DHT22;6692;50.710;7.180;2022-08-11T11:34:46;24.20;99.90
13251;DHT22;6692;50.710;7.180;2022-08-11T11:37:00;24.20;99.90
13251;DHT22;6692;50.710;7.180;2022-08-11T11:39:00;24.20;99.90
13251;DHT22;6692;50.710;7.180;2022-08-11T11:41:01;24.20;99.90
13251;DHT22;6692;50.710;7.180;2022-08-11T11:43:02;24.40;99.90
13251;DHT22;6692;50.710;7.180;2022-08-11T11:45:06;24.50;99.90
13251;DHT22;6692;50.710;7.180;2022-08-11T11:47:06;24.50;99.90
13251;DHT22;6692;50.710;7.180;2022-08-11T11:49:07;24.50;99.90
13251;DHT22;6692;50.710;7.180;2022-08-11T11:51:08;24.50;99.90
13251;DHT22;6692;50.710;7.180;2022-08-11T11:53:09;24.50;99.90
13251;DHT22;6692;50.710;7.180;2022-08-11T11:55:10;24.40;99.90
13251;DHT22;6692;50.710;7.180;2022-08-11T11:57:11;24.50;99.90
13251;DHT22;6692;50.710;7.180;2022-08-11T11:59:20;24.50;99.90
13251;DHT22;6692;50.710;7.180;2022-08-11T12:01:36;24.60;99.90
13251;DHT22;6692;50.710;7.180;2022-08-11T12:03:38;24.60;99.90
13251;DHT22;6692;50.710;7.180;2022-08-11T12:05:38;24.60;99.90
13251;DHT22;6692;50.710;7.180;2022-08-11T12:07:39;24.60;99.90
13251;DHT22;6692;50.710;7.180;2022-08-11T12:09:46;24.60;99.90
13251;DHT22;6692;50.710;7.180;2022-08-11T12:11:47;24.50;99.90
13251;DHT22;6692;50.710;7.180;2022-08-11T12:13:54;24.50;99.90
13251;DHT22;6692;50.710;7.180;2022-08-11T12:15:54;24.50;99.90
13251;DHT22;6692;50.710;7.180;2022-08-11T12:17:55;24.60;99.90
13251;DHT22;6692;50.710;7.180;2022-08-11T12:19:56;24.70;99.90
13251;DHT22;6692;50.710;7.180;2022-08-11T12:21:57;24.70;99.90
13251;DHT22;6692;50.710;7.180;2022-08-11T12:24:04;24.80;99.90
13251;DHT22;6692;50.710;7.180;2022-08-11T12:26:12;24.90;99.90
13251;DHT22;6692;50.710;7.180;2022-08-11T12:28:17;25.00;99.90
13251;DHT22;6692;50.710;7.180;2022-08-11T12:30:18;24.90;99.90
13251;DHT22;6692;50.710;7.180;2022-08-11T12:32:18;24.90;99.90
13251;DHT22;6692;50.710;7.180;2022-08-11T12:34:19;24.90;99.90
13251;DHT22;6692;50.710;7.180;2022-08-11T12:36:20;24.90;99.90
13251;DHT22;6692;50.710;7.180;2022-08-11T12:38:21;25.00;99.90
13251;DHT22;6692;50.710;7.180;2022-08-11T12:40:23;25.10;99.90
13251;DHT22;6692;50.710;7.180;2022-08-11T12:42:30;25.00;99.90
13251;DHT22;6692;50.710;7.180;2022-08-11T12:44:36;25.10;99.90
13251;DHT22;6692;50.710;7.180;2022-08-11T12:46:43;25.20;99.90
13251;DHT22;6692;50.710;7.180;2022-08-11T12:48:44;25.30;99.90
13251;DHT22;6692;50.710;7.180;2022-08-11T12:50:51;25.60;99.90
13251;DHT22;6692;50.710;7.180;2022-08-11T12:52:57;26.20;99.90
13251;DHT22;6692;50.710;7.180;2022-08-11T12:55:01;27.90;99.90
13251;DHT22;6692;50.710;7.180;2022-08-11T12:57:02;27.80;99.90
13251;DHT22;6692;50.710;7.180;2022-08-11T12:59:07;28.70;99.90
13251;DHT22;6692;50.710;7.180;2022-08-11T13:01:14;29.90;99.90
13251;DHT22;6692;50.710;7.180;2022-08-11T13:03:21;29.80;99.90
13251;DHT22;6692;50.710;7.180;2022-08-11T13:05:28;30.50;99.90
13251;DHT22;6692;50.710;7.180;2022-08-11T13:07:30;31.30;99.90
13251;DHT22;6692;50.710;7.180;2022-08-11T13:09:31;31.70;99.90
13251;DHT22;6692;50.710;7.180;2022-08-11T13:11:32;31.90;99.90
13251;DHT22;6692;50.710;7.180;2022-08-11T13:13:39;31.90;99.90
13251;DHT22;6692;50.710;7.180;2022-08-11T13:15:40;32.20;99.60
13251;DHT22;6692;50.710;7.180;2022-08-11T13:17:41;32.60;99.80
13251;DHT22;6692;50.710;7.180;2022-08-11T13:19:42;32.60;99.80
13251;DHT22;6692;50.710;7.180;2022-08-11T13:21:43;32.80;99.90
13251;DHT22;6692;50.710;7.180;2022-08-11T13:23:43;32.80;99.00
13251;DHT22;6692;50.710;7.180;2022-08-11T13:25:45;32.60;98.50
13251;DHT22;6692;50.710;7.180;2022-08-11T13:27:46;32.60;98.60
13251;DHT22;6692;50.710;7.180;2022-08-11T13:29:46;32.60;98.80
13251;DHT22;6692;50.710;7.180;2022-08-11T13:31:47;32.40;98.80
13251;DHT22;6692;50.710;7.180;2022-08-11T13:33:48;32.30;99.50
13251;DHT22;6692;50.710;7.180;2022-08-11T13:35:50;32.40;98.70
13251;DHT22;6692;50.710;7.180;2022-08-11T13:37:51;32.50;98.90
13251;DHT22;6692;50.710;7.180;2022-08-11T13:39:52;32.50;99.00
13251;DHT22;6692;50.710;7.180;2022-08-11T13:41:54;32.50;98.90
13251;DHT22;6692;50.710;7.180;2022-08-11T13:43:55;32.50;99.10
13251;DHT22;6692;50.710;7.180;2022-08-11T13:45:57;32.50;99.40
13251;DHT22;6692;50.710;7.180;2022-08-11T13:47:58;32.10;98.60
13251;DHT22;6692;50.710;7.180;2022-08-11T13:49:58;31.90;99.00
13251;DHT22;6692;50.710;7.180;2022-08-11T13:51:59;31.90;99.30
13251;DHT22;6692;50.710;7.180;2022-08-11T13:54:05;32.10;99.20
13251;DHT22;6692;50.710;7.180;2022-08-11T13:56:04;32.10;99.30
13251;DHT22;6692;50.710;7.180;2022-08-11T13:58:05;32.30;99.10
13251;DHT22;6692;50.710;7.180;2022-08-11T14:00:07;32.30;98.70
13251;DHT22;6692;50.710;7.180;2022-08-11T14:02:12;32.30;98.20
13251;DHT22;6692;50.710;7.180;2022-08-11T14:04:13;32.40;97.70
13251;DHT22;6692;50.710;7.180;2022-08-11T14:06:12;32.60;97.70
13251;DHT22;6692;50.710;7.180;2022-08-11T14:08:15;32.70;97.60
13251;DHT22;6692;50.710;7.180;2022-08-11T14:10:15;32.90;96.10
13251;DHT22;6692;50.710;7.180;2022-08-11T14:12:16;33.10;96.80
13251;DHT22;6692;50.710;7.180;2022-08-11T14:14:22;33.20;97.00
13251;DHT22;6692;50.710;7.180;2022-08-11T14:16:27;33.20;97.20
13251;DHT22;6692;50.710;7.180;2022-08-11T14:18:27;33.20;97.20
13251;DHT22;6692;50.710;7.180;2022-08-11T14:20:26;33.50;97.20
13251;DHT22;6692;50.710;7.180;2022-08-11T14:22:27;33.50;96.80
13251;DHT22;6692;50.710;7.180;2022-08-11T14:24:28;33.60;97.00